Time;durP1;ratioP1;P1;durP2;ratioP2;P2;SDS_P1;SDS_P2;PMS_P1;PMS_P2;Temp;Humidity;BMP_temperature;BMP_pressure;BME280_temperature;BME280_humidity;BME280_pressure;Samples;Min_cycle;Max_cycle;Signal;HPM_P1;HPM_P2
2024/04/05 00:01:45;;;;;;;;;2.33;2.33;;;;;15.81;100.00;98440.03;6081147;28;96767;-61
2024/04/05 00:04:47;;;;;;;;;2.00;2.00;;;;;15.90;100.00;98440.31;6101220;28;96336;-61
2024/04/05 00:07:48;;;;;;;;;2.50;2.00;;;;;15.89;100.00;98442.22;6091999;28;98542;-61
2024/04/05 00:10:50;;;;;;;;;2.00;2.00;;;;;15.87;100.00;98447.13;6124489;28;96955;-62
2024/04/05 00:13:52;;;;;;;;;3.00;2.00;;;;;15.83;100.00;98445.19;6106271;28;98786;-61
2024/04/05 00:16:55;;;;;;;;;1.00;0.00;;;;;15.88;100.00;98448.72;6103400;28;96432;-62
2024/04/05 00:19:56;;;;;;;;;2.00;2.00;;;;;15.93;100.00;98445.25;6106952;28;96422;-61
2024/04/05 00:22:59;;;;;;;;;2.00;2.00;;;;;15.91;100.00;98442.78;6106204;28;99292;-61
2024/04/05 00:26:02;;;;;;;;;2.00;2.00;;;;;15.93;100.00;98447.97;6105885;28;96306;-62
2024/04/05 00:29:04;;;;;;;;;2.80;2.80;;;;;15.90;100.00;98445.75;6096466;28;99335;-63
2024/04/05 00:32:07;;;;;;;;;3.00;3.00;;;;;15.96;100.00;98450.94;6082214;28;98966;-63
2024/04/05 00:35:09;;;;;;;;;2.00;2.00;;;;;15.97;100.00;98460.75;6112854;28;96386;-63
2024/04/05 00:38:10;;;;;;;;;2.00;2.00;;;;;15.85;100.00;98467.47;6096415;28;96294;-63
2024/04/05 00:41:12;;;;;;;;;1.00;1.00;;;;;15.98;100.00;98466.97;6102696;28;96686;-63
2024/04/05 00:44:14;;;;;;;;;3.00;3.00;;;;;15.95;100.00;98467.53;6107823;28;96280;-64
2024/04/05 00:47:18;;;;;;;;;4.00;3.00;;;;;15.72;100.00;98481.56;6088723;28;99268;-63
2024/04/05 00:50:19;;;;;;;;;2.00;1.00;;;;;15.95;100.00;98494.72;6058766;28;98554;-62
2024/04/05 00:53:25;;;;;;;;;2.00;2.00;;;;;16.06;100.00;98493.66;6113084;28;96639;-64
2024/04/05 00:56:30;;;;;;;;;2.00;1.50;;;;;16.06;100.00;98492.84;6112830;28;96824;-63
2024/04/05 00:59:33;;;;;;;;;1.00;1.00;;;;;16.06;100.00;98485.50;6113137;28;96420;-65
2024/04/05 01:02:35;;;;;;;;;2.00;1.60;;;;;16.18;100.00;98488.78;6113260;28;96231;-64
2024/04/05 01:05:39;;;;;;;;;1.40;1.00;;;;;16.13;100.00;98487.97;6095994;28;98555;-65
2024/04/05 01:08:41;;;;;;;;;2.00;2.00;;;;;16.10;100.00;98483.88;6112879;28;96429;-65
2024/04/05 01:11:43;;;;;;;;;1.00;1.00;;;;;16.27;100.00;98506.22;6096538;28;96341;-63
2024/04/05 01:14:44;;;;;;;;;2.00;2.00;;;;;16.27;100.00;98511.66;6096986;28;96916;-61
2024/04/05 01:17:48;;;;;;;;;2.00;2.00;;;;;16.20;100.00;98493.97;6084573;28;99109;-63
2024/04/05 01:20:52;;;;;;;;;2.20;1.00;;;;;16.32;100.00;98513.63;6096131;28;97405;-63
2024/04/05 01:23:57;;;;;;;;;2.00;1.75;;;;;16.32;100.00;98519.06;6113392;28;96850;-62
2024/04/05 01:26:58;;;;;;;;;1.00;1.00;;;;;16.27;100.00;98513.59;6081069;28;98758;-65
2024/04/05 01:30:00;;;;;;;;;1.00;1.00;;;;;16.04;100.00;98501.25;6067383;28;96354;-64
2024/04/05 01:33:02;;;;;;;;;1.80;1.80;;;;;16.03;100.00;98524.91;6089651;28;96393;-65
2024/04/05 01:36:05;;;;;;;;;2.40;2.00;;;;;16.09;100.00;98528.47;6072904;28;98457;-64
2024/04/05 01:39:08;;;;;;;;;2.00;2.00;;;;;16.05;100.00;98530.09;6067107;28;100216;-62
2024/04/05 01:42:10;;;;;;;;;1.00;1.00;;;;;16.01;100.00;98537.16;6093482;28;96358;-62
2024/04/05 01:45:12;;;;;;;;;1.00;1.00;;;;;16.04;100.00;98542.06;6082565;28;96300;-62
2024/04/05 01:48:14;;;;;;;;;2.00;2.00;;;;;15.99;100.00;98537.41;6065055;28;98943;-61
2024/04/05 01:51:15;;;;;;;;;2.67;2.00;;;;;15.96;100.00;98540.66;6091031;28;96614;-62
2024/04/05 01:54:19;;;;;;;;;1.00;1.00;;;;;15.90;100.00;98540.91;6106181;28;96807;-61
2024/04/05 01:57:20;;;;;;;;;1.00;1.00;;;;;15.85;100.00;98551.75;6103601;28;96395;-61
2024/04/05 02:00:23;;;;;;;;;1.40;1.40;;;;;15.77;100.00;98552.25;6081706;28;98718;-61
2024/04/05 02:03:24;;;;;;;;;1.00;1.00;;;;;15.75;100.00;98548.97;6090158;28;96311;-61
2024/04/05 02:06:26;;;;;;;;;1.00;1.00;;;;;15.57;100.00;98558.38;6074546;28;97480;-61
2024/04/05 02:09:30;;;;;;;;;2.00;2.00;;;;;15.61;100.00;98551.34;6103910;28;97613;-61
2024/04/05 02:12:31;;;;;;;;;1.00;1.00;;;;;15.51;100.00;98554.00;6074580;28;98429;-61
2024/04/05 02:15:33;;;;;;;;;1.00;1.00;;;;;15.42;100.00;98550.09;6081830;28;96909;-61
2024/04/05 02:18:34;;;;;;;;;1.00;1.00;;;;;15.50;100.00;98564.00;6101563;28;96381;-61
2024/04/05 02:21:37;;;;;;;;;1.00;1.00;;;;;15.48;100.00;98568.06;6101249;28;96735;-61
2024/04/05 02:24:39;;;;;;;;;1.40;1.40;;;;;15.58;100.00;98565.47;6090050;28;97018;-62
2024/04/05 02:27:41;;;;;;;;;1.00;1.00;;;;;15.55;100.00;98574.13;6106468;28;96351;-61
2024/04/05 02:30:43;;;;;;;;;2.00;2.00;;;;;15.58;100.00;98565.47;6105102;28;96424;-61
2024/04/05 02:33:45;;;;;;;;;1.75;1.75;;;;;15.46;100.00;98579.19;6095273;28;96484;-61
2024/04/05 02:36:46;;;;;;;;;1.00;1.00;;;;;15.57;100.00;98580.94;6111052;28;96315;-61
2024/04/05 02:39:50;;;;;;;;;2.00;2.00;;;;;15.48;100.00;98584.38;6112119;28;96394;-61
2024/04/05 02:42:51;;;;;;;;;2.00;2.00;;;;;15.52;100.00;98590.94;6111954;28;96303;-61
2024/04/05 02:45:53;;;;;;;;;1.00;1.00;;;;;15.45;100.00;98585.69;6091501;28;96467;-61
2024/04/05 02:48:55;;;;;;;;;2.00;1.75;;;;;15.55;100.00;98596.66;6092678;28;96692;-63
2024/04/05 02:51:57;;;;;;;;;1.00;1.00;;;;;15.58;100.00;98603.50;6095675;28;98477;-63
2024/04/05 02:55:00;;;;;;;;;3.00;3.00;;;;;15.55;100.00;98607.53;6097287;28;98440;-63
2024/04/05 02:58:02;;;;;;;;;1.60;1.60;;;;;15.55;100.00;98612.16;6088701;28;98988;-64
2024/04/05 03:01:03;;;;;;;;;1.00;1.00;;;;;15.40;100.00;98609.28;6109779;28;96380;-64
2024/04/05 03:04:06;;;;;;;;;0.60;0.60;;;;;15.49;100.00;98618.63;6076018;28;99605;-63
2024/04/05 03:07:07;;;;;;;;;2.00;1.00;;;;;15.35;100.00;98592.94;6088874;28;98966;-64
2024/04/05 03:10:10;;;;;;;;;1.00;1.00;;;;;15.53;100.00;98617.03;6097423;28;98469;-64
2024/04/05 03:13:12;;;;;;;;;1.00;1.00;;;;;15.47;100.00;98624.31;6102548;28;96610;-62
2024/04/05 03:16:14;;;;;;;;;1.75;1.25;;;;;15.58;100.00;98626.06;6114121;28;96613;-64
2024/04/05 03:19:15;;;;;;;;;1.00;1.00;;;;;15.50;100.00;98631.91;6108492;28;96640;-64
2024/04/05 03:22:18;;;;;;;;;1.00;1.00;;;;;15.54;100.00;98635.78;6107661;28;96414;-64
2024/04/05 03:25:20;;;;;;;;;2.00;2.00;;;;;15.57;100.00;98642.63;6074484;28;98774;-64
2024/04/05 03:28:23;;;;;;;;;2.40;1.00;;;;;15.65;100.00;98642.13;6095222;28;98621;-64
2024/04/05 03:31:24;;;;;;;;;1.60;1.60;;;;;15.54;100.00;98654.81;6095358;28;96286;-64
2024/04/05 03:34:27;;;;;;;;;2.00;2.00;;;;;15.49;100.00;98641.16;6093492;28;96361;-63
2024/04/05 03:37:29;;;;;;;;;2.40;2.40;;;;;15.62;100.00;98661.69;6091332;28;96410;-64
2024/04/05 03:40:33;;;;;;;;;2.40;1.40;;;;;15.54;100.00;98654.81;6088785;28;96853;-64
2024/04/05 03:43:35;;;;;;;;;0.25;0.00;;;;;15.53;100.00;98661.34;6091396;28;96299;-63
2024/04/05 03:46:38;;;;;;;;;1.00;1.00;;;;;15.51;100.00;98671.63;6100401;28;96419;-63
2024/04/05 03:49:40;;;;;;;;;2.00;1.00;;;;;15.47;100.00;98669.66;6089760;28;96603;-65
2024/04/05 03:52:42;;;;;;;;;1.00;1.00;;;;;15.49;100.00;98668.31;6076188;28;98682;-64
2024/04/05 03:55:46;;;;;;;;;0.67;0.67;;;;;15.48;100.00;98674.03;6092764;28;96796;-64
2024/04/05 03:58:47;;;;;;;;;0.00;0.00;;;;;15.51;100.00;98674.34;6098048;28;96347;-63
2024/04/05 04:01:50;;;;;;;;;1.00;1.00;;;;;15.52;100.00;98688.75;6079042;28;98502;-64
2024/04/05 04:04:53;;;;;;;;;1.00;1.00;;;;;15.55;100.00;98682.78;6111404;28;96436;-65
2024/04/05 04:07:54;;;;;;;;;1.00;1.00;;;;;15.58;100.00;98685.84;6111666;28;96385;-64
2024/04/05 04:10:58;;;;;;;;;1.00;1.00;;;;;15.58;100.00;98687.72;6093853;28;96768;-63
2024/04/05 04:13:59;;;;;;;;;2.00;1.00;;;;;15.59;100.00;98689.34;6091937;28;96172;-63
2024/04/05 04:17:01;;;;;;;;;1.00;1.00;;;;;15.64;100.00;98694.03;6099325;28;96317;-62
2024/04/05 04:20:04;;;;;;;;;1.00;1.00;;;;;15.48;100.00;98696.59;6080893;28;97668;-63
2024/04/05 04:23:07;;;;;;;;;2.00;2.00;;;;;15.47;100.00;98689.50;6084910;28;96861;-62
2024/04/05 04:26:10;;;;;;;;;1.00;1.00;;;;;15.36;100.00;98697.81;6102380;28;96605;-64
2024/04/05 04:29:12;;;;;;;;;2.00;1.50;;;;;15.38;100.00;98695.66;6092046;28;98522;-63
2024/04/05 04:32:15;;;;;;;;;2.00;2.00;;;;;15.36;100.00;98685.03;6071606;28;96635;-64
2024/04/05 04:35:16;;;;;;;;;1.60;1.60;;;;;15.38;100.00;98691.06;6096480;28;97192;-64
2024/04/05 04:38:19;;;;;;;;;1.50;1.50;;;;;15.34;100.00;98705.41;6085562;28;96292;-64
2024/04/05 04:41:21;;;;;;;;;2.00;1.60;;;;;15.18;100.00;98694.38;6071182;28;99257;-64
2024/04/05 04:44:24;;;;;;;;;2.00;2.00;;;;;15.21;100.00;98703.91;6109118;28;97092;-61
2024/04/05 04:47:27;;;;;;;;;2.00;2.00;;;;;15.05;100.00;98697.50;6106606;28;96779;-62
2024/04/05 04:50:29;;;;;;;;;1.00;1.00;;;;;15.17;100.00;98705.50;6091568;28;99021;-63
2024/04/05 04:53:30;;;;;;;;;2.00;2.00;;;;;15.17;100.00;98708.22;6100124;28;96649;-62
2024/04/05 04:56:34;;;;;;;;;1.00;1.00;;;;;15.14;100.00;98697.88;6092354;28;96688;-62
2024/04/05 04:59:36;;;;;;;;;1.60;1.00;;;;;15.32;100.00;98721.97;6089586;28;96324;-62
2024/04/05 05:02:42;;;;;;;;;2.00;2.00;;;;;15.37;100.00;98730.16;6075223;28;99189;-61
2024/04/05 05:05:44;;;;;;;;;2.00;2.00;;;;;15.37;100.00;98727.44;6076432;28;96702;-63
2024/04/05 05:08:46;;;;;;;;;3.60;3.60;;;;;15.42;100.00;98737.53;6064700;28;98998;-61
2024/04/05 05:11:49;;;;;;;;;1.25;1.00;;;;;15.44;100.00;98736.19;6083207;28;96436;-61
2024/04/05 05:14:51;;;;;;;;;1.00;1.00;;;;;15.30;100.00;98734.97;6097659;28;97000;-61
2024/04/05 05:17:53;;;;;;;;;4.00;3.00;;;;;15.34;100.00;98749.69;6097708;28;96575;-61
2024/04/05 05:20:55;;;;;;;;;3.00;2.00;;;;;15.39;100.00;98748.91;6099736;28;96287;-61
2024/04/05 05:23:58;;;;;;;;;3.00;2.00;;;;;15.46;100.00;98755.78;6079931;28;98482;-60
2024/04/05 05:27:01;;;;;;;;;2.00;2.00;;;;;15.44;100.00;98743.53;6085484;28;98744;-63
2024/04/05 05:30:04;;;;;;;;;14.00;10.80;;;;;15.56;100.00;98747.75;6107228;28;96834;-61
2024/04/05 05:33:06;;;;;;;;;2.00;2.00;;;;;15.72;100.00;98761.50;6105198;28;96543;-61
2024/04/05 05:36:08;;;;;;;;;2.00;2.00;;;;;15.60;100.00;98758.94;6088086;28;96663;-61
2024/04/05 05:39:11;;;;;;;;;3.60;2.20;;;;;15.74;100.00;98764.75;6089348;28;96372;-61
2024/04/05 05:42:15;;;;;;;;;2.20;2.00;;;;;15.57;100.00;98776.59;6081614;28;96358;-61
2024/04/05 05:45:16;;;;;;;;;3.40;2.60;;;;;15.81;100.00;98777.06;6090892;28;96909;-61
2024/04/05 05:48:18;;;;;;;;;2.80;2.00;;;;;15.78;100.00;98782.22;6094884;28;96504;-61
2024/04/05 05:51:20;;;;;;;;;3.00;2.75;;;;;15.99;100.00;98779.41;6097661;28;96355;-61
2024/04/05 05:54:22;;;;;;;;;2.60;2.00;;;;;16.13;100.00;98790.66;6065210;28;99084;-61
2024/04/05 05:57:25;;;;;;;;;2.00;2.00;;;;;16.21;100.00;98792.09;6105981;28;96579;-61
2024/04/05 06:00:28;;;;;;;;;4.00;3.00;;;;;16.44;100.00;98794.44;6109858;28;96512;-61
2024/04/05 06:03:29;;;;;;;;;2.00;2.00;;;;;16.61;100.00;98789.69;6100934;28;96847;-61
2024/04/05 06:06:32;;;;;;;;;4.00;3.25;;;;;16.85;100.00;98798.25;6083447;28;96688;-61
2024/04/05 06:09:34;;;;;;;;;3.00;3.00;;;;;17.14;100.00;98810.38;6100286;28;96367;-61
2024/04/05 06:12:39;;;;;;;;;3.00;3.00;;;;;17.48;100.00;98801.78;6082622;28;96645;-61
2024/04/05 06:15:41;;;;;;;;;3.00;3.00;;;;;17.67;100.00;98798.31;6086243;28;96999;-61
2024/04/05 06:18:45;;;;;;;;;3.00;2.00;;;;;17.73;100.00;98813.59;6096215;28;96321;-62
2024/04/05 06:21:46;;;;;;;;;3.00;2.20;;;;;17.85;100.00;98807.06;6094316;28;96180;-61
2024/04/05 06:24:52;;;;;;;;;4.50;3.00;;;;;18.01;100.00;98811.44;6092656;28;96343;-61
2024/04/05 06:27:55;;;;;;;;;5.00;4.00;;;;;18.08;100.00;98822.94;6108383;28;96293;-61
2024/04/05 06:30:57;;;;;;;;;3.00;3.00;;;;;18.17;100.00;98830.28;6093564;28;96390;-61
2024/04/05 06:33:59;;;;;;;;;4.00;3.00;;;;;18.01;100.00;98823.19;6102710;28;96434;-61
2024/04/05 06:37:00;;;;;;;;;2.00;2.00;;;;;18.16;100.00;98839.56;6099716;28;96267;-61
2024/04/05 06:40:03;;;;;;;;;1.00;1.00;;;;;18.24;100.00;98830.00;6066434;28;98938;-62
2024/04/05 06:43:06;;;;;;;;;2.00;2.00;;;;;18.18;100.00;98834.63;6075213;28;98611;-62
2024/04/05 06:46:08;;;;;;;;;2.33;2.33;;;;;18.26;100.00;98843.38;6090867;28;96328;-61
2024/04/05 06:49:14;;;;;;;;;2.00;2.00;;;;;18.27;100.00;98839.56;6097889;28;96664;-63
2024/04/05 06:52:16;;;;;;;;;2.00;2.00;;;;;18.27;100.00;98842.31;6098309;28;97668;-61
2024/04/05 06:55:19;;;;;;;;;2.40;2.40;;;;;18.19;100.00;98843.66;6096608;28;98481;-61
2024/04/05 06:58:22;;;;;;;;;3.60;2.60;;;;;18.38;100.00;98850.19;6066289;28;96752;-62
2024/04/05 07:01:24;;;;;;;;;2.00;2.00;;;;;18.48;100.00;98861.13;6075217;28;96494;-63
2024/04/05 07:04:26;;;;;;;;;1.40;1.40;;;;;18.63;100.00;98856.78;6089879;28;96292;-61
2024/04/05 07:07:28;;;;;;;;;2.00;1.00;;;;;18.84;100.00;98858.41;6098174;28;98704;-61
2024/04/05 07:10:29;;;;;;;;;1.00;1.00;;;;;19.01;100.00;98862.44;6085243;28;96609;-61
2024/04/05 07:13:33;;;;;;;;;2.00;2.00;;;;;19.21;100.00;98869.75;6094327;28;96360;-62
2024/04/05 07:16:34;;;;;;;;;2.00;1.80;;;;;19.37;100.00;98865.88;6098912;28;96966;-62
2024/04/05 07:19:36;;;;;;;;;1.60;1.00;;;;;19.60;100.00;98855.41;6100515;28;97199;-62
2024/04/05 07:22:38;;;;;;;;;3.00;2.00;;;;;20.02;100.00;98876.81;6062874;28;98396;-62
2024/04/05 07:25:40;;;;;;;;;3.00;2.00;;;;;19.95;100.00;98865.34;6109284;28;97043;-61
2024/04/05 07:28:43;;;;;;;;;2.00;2.00;;;;;19.97;100.00;98876.84;6099801;28;96284;-62
2024/04/05 07:31:48;;;;;;;;;2.00;1.80;;;;;20.47;100.00;98873.78;6101012;28;98626;-61
2024/04/05 07:34:50;;;;;;;;;2.00;2.00;;;;;21.02;100.00;98875.19;6080339;28;96872;-62
2024/04/05 07:37:53;;;;;;;;;2.00;2.00;;;;;21.22;100.00;98876.91;6093635;28;96336;-62
2024/04/05 07:41:02;;;;;;;;;2.50;2.00;;;;;21.33;100.00;98872.97;6108559;28;96513;-62
2024/04/05 07:44:06;;;;;;;;;2.00;2.00;;;;;21.43;100.00;98861.88;6089348;28;96380;-62
2024/04/05 07:47:08;;;;;;;;;2.00;1.40;;;;;21.80;100.00;98879.50;6093899;28;96797;-62
2024/04/05 07:50:10;;;;;;;;;2.00;2.00;;;;;22.03;100.00;98873.19;6099406;28;96296;-62
2024/04/05 07:53:12;;;;;;;;;2.00;2.00;;;;;22.72;100.00;98874.31;6080896;28;98458;-62
2024/04/05 07:56:14;;;;;;;;;2.00;2.00;;;;;23.32;100.00;98883.34;6089705;28;96580;-62
2024/04/05 07:59:16;;;;;;;;;1.00;1.00;;;;;24.09;100.00;98877.91;6095246;28;98582;-62
2024/04/05 08:02:21;;;;;;;;;2.50;2.00;;;;;24.79;100.00;98882.84;6086990;28;96350;-62
2024/04/05 08:05:23;;;;;;;;;2.00;1.00;;;;;25.37;100.00;98879.94;6094763;28;96389;-62
2024/04/05 08:08:24;;;;;;;;;2.00;2.00;;;;;25.00;100.00;98884.81;6097383;28;96550;-62
2024/04/05 08:11:27;;;;;;;;;2.00;2.00;;;;;24.59;100.00;98892.44;6098140;28;97595;-62
2024/04/05 08:14:29;;;;;;;;;2.00;2.00;;;;;24.84;100.00;98894.56;6074460;28;98622;-62
2024/04/05 08:17:31;;;;;;;;;4.40;3.40;;;;;25.16;100.00;98890.72;6089053;28;96372;-61
2024/04/05 08:20:34;;;;;;;;;3.60;3.00;;;;;26.03;99.23;98900.13;6105088;28;96320;-61
2024/04/05 08:23:35;;;;;;;;;3.00;3.00;;;;;26.57;94.01;98894.00;6086798;28;96674;-61
2024/04/05 08:26:38;;;;;;;;;2.00;1.00;;;;;26.79;90.23;98890.22;6088093;28;96122;-61
2024/04/05 08:29:41;;;;;;;;;3.00;2.00;;;;;27.73;87.66;98886.38;6085213;28;96498;-62
2024/04/05 08:32:44;;;;;;;;;2.00;2.00;;;;;29.37;77.96;98879.44;6090335;28;96330;-62
2024/04/05 08:35:50;;;;;;;;;4.50;1.75;;;;;31.09;67.93;98905.41;6089619;28;96672;-62
2024/04/05 08:38:55;;;;;;;;;2.00;1.00;;;;;31.88;62.10;98897.09;6089843;28;96815;-62
2024/04/05 08:42:11;;;;;;;;;4.00;4.00;;;;;32.76;62.46;98899.09;6091323;28;96666;-62
2024/04/05 08:45:15;;;;;;;;;2.00;2.00;;;;;33.63;60.23;98891.91;6088479;28;96824;-61
2024/04/05 08:48:21;;;;;;;;;4.00;3.00;;;;;33.68;55.14;98900.03;6091630;28;97105;-62
2024/04/05 08:51:22;;;;;;;;;3.00;3.00;;;;;34.00;54.78;98894.94;6078053;28;96273;-62
2024/04/05 08:54:25;;;;;;;;;3.60;2.40;;;;;34.04;51.38;98891.00;6062852;28;98684;-62
2024/04/05 08:57:30;;;;;;;;;2.00;2.00;;;;;35.06;48.63;98890.75;6109829;28;96367;-62
2024/04/05 09:00:35;;;;;;;;;2.75;1.00;;;;;36.62;46.89;98894.81;6085850;28;96342;-64
2024/04/05 09:03:36;;;;;;;;;3.00;2.00;;;;;37.98;42.84;98900.28;6082854;28;96558;-63
2024/04/05 09:06:40;;;;;;;;;3.00;2.00;;;;;39.22;41.21;98895.03;6100972;28;96814;-63
2024/04/05 09:09:46;;;;;;;;;5.00;3.00;;;;;40.11;37.90;98894.34;6096419;28;96387;-63
2024/04/05 09:12:49;;;;;;;;;2.40;2.00;;;;;41.16;35.71;98902.78;6074954;28;96846;-62
2024/04/05 09:15:52;;;;;;;;;2.00;2.00;;;;;40.96;34.19;98893.34;6101583;28;96498;-63
2024/04/05 09:19:02;;;;;;;;;2.00;1.00;;;;;40.05;35.32;98888.34;6089008;28;96572;-63
2024/04/05 09:22:05;;;;;;;;;1.00;1.00;;;;;40.31;33.90;98892.53;6081541;28;98633;-63
2024/04/05 09:25:06;;;;;;;;;1.75;1.75;;;;;40.06;34.73;98884.31;6087791;28;96425;-63
2024/04/05 09:28:12;;;;;;;;;4.00;3.00;;;;;41.14;34.94;98895.97;6086664;28;98426;-64
2024/04/05 09:31:19;;;;;;;;;2.00;1.00;;;;;42.25;32.82;98897.34;6087333;28;96278;-64
2024/04/05 09:34:25;;;;;;;;;1.00;1.00;;;;;41.98;32.15;98904.34;6093566;28;96285;-64
2024/04/05 09:37:28;;;;;;;;;1.00;1.00;;;;;40.18;34.35;98897.91;6080891;28;96411;-64
2024/04/05 09:40:32;;;;;;;;;1.00;1.00;;;;;37.72;37.45;98885.44;6078070;28;96375;-64
2024/04/05 09:43:36;;;;;;;;;2.00;2.00;;;;;35.94;40.94;98880.34;6087828;28;97122;-64
2024/04/05 09:46:39;;;;;;;;;1.60;1.60;;;;;35.85;41.23;98882.69;6077259;28;96732;-63
2024/04/05 09:49:41;;;;;;;;;5.00;3.00;;;;;37.23;39.28;98882.59;6099405;28;96747;-63
2024/04/05 09:52:46;;;;;;;;;2.00;1.00;;;;;38.87;36.90;98893.19;6088369;28;97253;-62
2024/04/05 09:55:53;;;;;;;;;3.00;1.60;;;;;41.03;35.98;98884.81;6093439;28;97163;-63
2024/04/05 09:58:57;;;;;;;;;2.00;1.50;;;;;43.11;32.67;98883.03;6069912;28;96479;-63
2024/04/05 10:02:00;;;;;;;;;2.20;1.80;;;;;44.14;30.14;98897.53;6080334;28;98915;-63
2024/04/05 10:05:02;;;;;;;;;0.00;0.00;;;;;44.57;28.92;98890.69;6097236;28;97072;-63
2024/04/05 10:08:10;;;;;;;;;1.75;1.75;;;;;45.70;27.60;98887.13;6091982;28;96504;-64
2024/04/05 10:11:13;;;;;;;;;4.00;3.00;;;;;45.95;26.48;98887.09;6087646;28;96497;-64
2024/04/05 10:14:24;;;;;;;;;2.00;1.00;;;;;44.61;26.91;98882.84;6096925;28;97548;-64
2024/04/05 10:17:29;;;;;;;;;1.00;1.00;;;;;43.06;27.94;98869.34;6097065;28;97471;-64
2024/04/05 10:20:30;;;;;;;;;2.00;2.00;;;;;42.54;28.62;98869.25;6088107;28;96572;-64
2024/04/05 10:23:33;;;;;;;;;0.80;0.80;;;;;43.19;29.09;98878.81;6072778;28;98758;-63
2024/04/05 10:26:35;;;;;;;;;1.60;1.00;;;;;42.72;28.90;98860.38;6066278;28;97143;-63
2024/04/05 10:29:38;;;;;;;;;1.00;1.00;;;;;42.71;28.93;98875.81;6096894;28;96640;-63
2024/04/05 10:32:42;;;;;;;;;1.00;0.00;;;;;40.53;30.38;98862.00;6103054;28;96569;-63
2024/04/05 10:35:45;;;;;;;;;1.00;1.00;;;;;37.97;33.15;98867.72;6088837;28;96543;-63
2024/04/05 10:38:46;;;;;;;;;1.00;1.00;;;;;36.61;37.58;98867.91;6083725;28;96390;-63
2024/04/05 10:41:49;;;;;;;;;1.00;1.00;;;;;37.08;37.76;98855.66;6080721;28;96336;-63
2024/04/05 10:44:55;;;;;;;;;2.00;1.25;;;;;39.31;35.05;98855.88;6085642;28;97526;-63
2024/04/05 10:47:58;;;;;;;;;1.00;1.00;;;;;40.57;32.50;98855.06;6088257;28;98463;-63
2024/04/05 10:51:01;;;;;;;;;1.80;1.80;;;;;41.94;31.68;98870.41;6087173;28;96416;-63
2024/04/05 10:54:08;;;;;;;;;1.00;1.00;;;;;41.50;30.63;98863.06;6100748;28;96387;-63
2024/04/05 10:57:36;;;;;;;;;1.00;1.00;;;;;39.70;31.85;98866.06;6087446;28;96893;-63
2024/04/05 11:00:38;;;;;;;;;0.00;0.00;;;;;37.41;34.96;98860.09;6091169;28;96533;-66
2024/04/05 11:03:42;;;;;;;;;1.00;1.00;;;;;36.30;37.83;98852.53;6102980;28;96733;-64
2024/04/05 11:06:44;;;;;;;;;2.00;2.00;;;;;37.13;37.86;98856.06;6089032;28;96322;-67
2024/04/05 11:09:46;;;;;;;;;1.00;1.00;;;;;38.86;32.62;98871.84;6098390;28;96534;-65
2024/04/05 11:12:49;;;;;;;;;1.00;1.00;;;;;40.20;31.29;98846.66;6099121;28;96460;-65
2024/04/05 11:16:00;;;;;;;;;1.20;1.00;;;;;41.16;30.79;98856.72;6099631;28;96507;-65
2024/04/05 11:19:04;;;;;;;;;1.40;1.40;;;;;41.15;30.54;98861.59;6098137;28;96344;-66
2024/04/05 11:22:06;;;;;;;;;2.00;1.00;;;;;42.40;30.61;98878.06;6097761;28;96659;-65
2024/04/05 11:25:08;;;;;;;;;2.00;2.00;;;;;42.44;29.35;98867.44;6105934;28;96355;-66
2024/04/05 11:28:11;;;;;;;;;1.00;1.00;;;;;42.38;29.13;98872.00;6097659;28;96811;-66
2024/04/05 11:31:12;;;;;;;;;0.50;0.50;;;;;42.50;27.43;98876.25;6098148;28;96839;-67
2024/04/05 11:34:16;;;;;;;;;2.00;1.00;;;;;42.99;27.26;98871.53;6097736;28;97121;-66
2024/04/05 11:37:17;;;;;;;;;2.00;1.40;;;;;42.80;26.83;98881.69;6099240;28;96277;-66
2024/04/05 11:40:19;;;;;;;;;1.00;1.00;;;;;42.92;25.93;98860.34;6095533;28;96310;-66
2024/04/05 11:43:21;;;;;;;;;2.00;1.60;;;;;43.24;26.49;98873.84;6097136;28;96227;-66
2024/04/05 11:46:25;;;;;;;;;2.00;1.00;;;;;43.43;26.64;98870.13;6070771;28;99008;-64
2024/04/05 11:49:28;;;;;;;;;1.00;1.00;;;;;43.24;26.50;98862.47;6066195;28;99742;-65
2024/04/05 11:52:31;;;;;;;;;1.00;1.00;;;;;42.46;27.11;98876.31;6088064;28;98449;-66
2024/04/05 11:55:33;;;;;;;;;1.80;1.80;;;;;41.42;28.05;98865.19;6086447;28;96263;-66
2024/04/05 11:58:34;;;;;;;;;1.20;1.20;;;;;39.82;29.89;98859.94;6107485;28;96294;-66
2024/04/05 12:01:37;;;;;;;;;2.00;1.40;;;;;38.84;31.74;98851.75;6088279;28;96725;-65
2024/04/05 12:04:40;;;;;;;;;2.00;1.00;;;;;38.10;33.49;98837.97;6096615;28;96431;-64
2024/04/05 12:07:42;;;;;;;;;2.67;2.00;;;;;37.25;34.66;98847.22;6085891;28;97195;-62
2024/04/05 12:10:43;;;;;;;;;1.00;1.00;;;;;35.78;36.62;98840.56;6110232;28;96346;-65
2024/04/05 12:13:46;;;;;;;;;2.00;1.60;;;;;34.77;38.62;98858.81;6104924;28;96471;-64
2024/04/05 12:16:48;;;;;;;;;2.00;2.00;;;;;33.92;42.06;98852.06;6070835;28;99033;-65
2024/04/05 12:19:52;;;;;;;;;3.00;2.00;;;;;33.15;42.21;98860.72;6074043;28;98423;-64
2024/04/05 12:22:54;;;;;;;;;2.00;1.00;;;;;32.22;45.60;98860.88;6095527;28;97387;-62
2024/04/05 12:25:55;;;;;;;;;2.00;2.00;;;;;31.27;48.01;98862.16;6084449;28;96412;-64
2024/04/05 12:28:57;;;;;;;;;0.00;0.00;;;;;30.59;48.12;98843.97;6093415;28;96360;-62
2024/04/05 12:32:00;;;;;;;;;1.00;1.00;;;;;30.46;47.90;98859.88;6094384;28;97518;-66
2024/04/05 12:35:04;;;;;;;;;1.00;1.00;;;;;29.87;50.79;98854.06;6087001;28;96402;-66
2024/04/05 12:38:07;;;;;;;;;2.00;1.00;;;;;29.53;52.03;98847.03;6091429;28;96334;-65
2024/04/05 12:41:08;;;;;;;;;1.00;0.40;;;;;29.28;54.44;98846.19;6092398;28;97454;-64
2024/04/05 12:44:10;;;;;;;;;1.00;1.00;;;;;29.10;55.62;98859.47;6090711;28;96305;-66
2024/04/05 12:47:12;;;;;;;;;1.00;1.00;;;;;29.06;56.32;98835.53;6088272;28;96644;-65
2024/04/05 12:50:15;;;;;;;;;1.00;1.00;;;;;28.59;52.86;98840.59;6100206;28;96399;-66
2024/04/05 12:53:16;;;;;;;;;1.00;0.75;;;;;28.02;54.72;98849.50;6101344;28;96763;-63
2024/04/05 12:56:19;;;;;;;;;1.00;1.00;;;;;28.05;57.09;98842.50;6060650;28;96952;-65
2024/04/05 12:59:22;;;;;;;;;2.00;2.00;;;;;27.95;58.62;98855.56;6095011;28;98727;-66
2024/04/05 13:02:23;;;;;;;;;1.00;1.00;;;;;27.81;59.74;98851.44;6085136;28;96804;-65
2024/04/05 13:05:27;;;;;;;;;2.00;2.00;;;;;27.88;58.10;98854.50;6090294;28;96344;-65
2024/04/05 13:08:28;;;;;;;;;1.00;1.00;;;;;27.21;59.14;98851.75;6092888;28;99420;-63
2024/04/05 13:11:31;;;;;;;;;1.00;1.00;;;;;26.92;58.10;98842.25;6093888;28;96856;-65
2024/04/05 13:14:32;;;;;;;;;2.00;1.00;;;;;26.90;61.10;98846.47;6106815;28;96418;-65
2024/04/05 13:17:35;;;;;;;;;3.00;2.00;;;;;26.68;62.25;98856.56;6105514;28;96743;-64
2024/04/05 13:20:38;;;;;;;;;3.00;2.00;;;;;26.66;63.92;98844.22;6098200;28;96538;-61
2024/04/05 13:23:41;;;;;;;;;2.25;2.00;;;;;26.46;67.54;98842.13;6094109;28;96410;-62
2024/04/05 13:26:43;;;;;;;;;2.00;2.00;;;;;26.45;66.11;98851.56;6097596;28;96718;-62
2024/04/05 13:29:45;;;;;;;;;2.00;1.60;;;;;26.33;64.05;98843.13;6092457;28;96371;-62
2024/04/05 13:32:46;;;;;;;;;1.00;1.00;;;;;26.06;64.00;98856.09;6070559;28;96605;-62
2024/04/05 13:35:51;;;;;;;;;1.00;1.00;;;;;25.88;63.75;98838.69;6095133;28;96571;-62
2024/04/05 13:38:52;;;;;;;;;2.00;2.00;;;;;25.60;65.71;98837.34;6072950;28;99779;-63
2024/04/05 13:41:54;;;;;;;;;1.00;1.00;;;;;25.44;68.21;98838.91;6058107;28;98731;-62
2024/04/05 13:44:56;;;;;;;;;1.00;1.00;;;;;25.43;69.79;98840.03;6087793;28;96801;-60
2024/04/05 13:47:58;;;;;;;;;2.00;1.00;;;;;25.42;67.30;98833.69;6069639;28;96637;-61
2024/04/05 13:51:01;;;;;;;;;2.00;2.00;;;;;25.44;65.46;98842.47;6086667;28;96275;-61
2024/04/05 13:54:04;;;;;;;;;2.00;2.00;;;;;25.57;67.80;98835.22;6081137;28;96740;-60
2024/04/05 13:57:05;;;;;;;;;1.00;1.00;;;;;25.56;67.64;98841.88;6081976;28;96442;-61
2024/04/05 14:00:08;;;;;;;;;2.00;2.00;;;;;25.54;69.09;98841.34;6080805;28;96794;-61
2024/04/05 14:03:12;;;;;;;;;1.00;1.00;;;;;25.41;69.58;98845.84;6077517;28;96500;-61
2024/04/05 14:06:16;;;;;;;;;2.00;2.00;;;;;25.24;69.80;98843.03;6080032;28;98528;-61
2024/04/05 14:09:18;;;;;;;;;1.00;1.00;;;;;25.12;71.08;98842.81;6071508;28;96637;-62
2024/04/05 14:12:21;;;;;;;;;1.40;1.40;;;;;24.91;72.34;98839.00;6086022;28;96689;-62
2024/04/05 14:15:22;;;;;;;;;2.00;2.00;;;;;24.64;75.04;98837.19;6076727;28;98640;-61